createdAt,value
2019-01-23T00:00:47.975Z,28.3
2019-01-23T00:01:37.466Z,28.3
2019-01-23T00:02:27.223Z,28.4
2019-01-23T00:03:17.575Z,28.4
2019-01-23T00:04:07.062Z,28.3
2019-01-23T00:04:57.615Z,28.2
2019-01-23T00:05:47.740Z,27.9
2019-01-23T00:06:36.960Z,27.7
2019-01-23T00:07:27.617Z,27.5
2019-01-23T00:08:17.909Z,27.4
2019-01-23T00:09:07.675Z,27.6
2019-01-23T00:09:58.033Z,27.4
2019-01-23T00:10:48.640Z,27.4
2019-01-23T00:11:37.052Z,27.3
2019-01-23T00:12:28.800Z,27.1
2019-01-23T00:13:18.222Z,27
2019-01-23T00:14:08.352Z,27.1
2019-01-23T00:14:58.124Z,27.3
2019-01-23T00:15:48.176Z,27.4
2019-01-23T00:16:37.917Z,27.6
2019-01-23T00:17:27.694Z,27.8
2019-01-23T00:18:32.149Z,27.9
2019-01-23T00:19:07.864Z,28.1
2019-01-23T00:19:58.136Z,28.1
2019-01-23T00:20:48.791Z,28.2
2019-01-23T00:21:39.092Z,28.3
2019-01-23T00:22:28.901Z,28.4
2019-01-23T00:23:18.655Z,28.5
2019-01-23T00:24:08.419Z,28.6
2019-01-23T00:24:57.941Z,28.6
2019-01-23T00:25:49.738Z,28.7
2019-01-23T00:26:37.769Z,28.8
2019-01-23T00:27:29.121Z,28.8
2019-01-23T00:28:19.059Z,28.8
2019-01-23T00:29:08.535Z,28.8
2019-01-23T00:29:59.386Z,28.6
2019-01-23T00:30:50.251Z,28.6
2019-01-23T00:31:38.956Z,28.4
2019-01-23T00:32:29.286Z,28.3
2019-01-23T00:33:19.330Z,28.2
2019-01-23T00:34:08.571Z,28.1
2019-01-23T00:35:49.586Z,27.7
2019-01-23T00:36:39.683Z,27.4
2019-01-23T00:37:30.254Z,27.3
2019-01-23T00:38:21.753Z,27.3
2019-01-23T00:39:10.071Z,27.3
2019-01-23T00:40:14.479Z,27.2
2019-01-23T00:40:50.473Z,27.1
2019-01-23T00:41:39.666Z,27.2
2019-01-23T00:42:30.307Z,27.4
2019-01-23T00:43:19.767Z,27.5
2019-01-23T00:44:10.713Z,27.7
2019-01-23T00:45:50.527Z,27.9
2019-01-23T00:46:38.618Z,28.1
2019-01-23T00:47:30.345Z,28.2
2019-01-23T00:48:20.957Z,28.3
2019-01-23T00:49:09.955Z,28.3
2019-01-23T00:50:00.757Z,28.4
2019-01-23T00:50:51.245Z,28.5
2019-01-23T00:51:40.359Z,28.6
2019-01-23T00:52:31.770Z,28.6
2019-01-23T00:53:21.055Z,28.7
2019-01-23T00:54:10.795Z,28.8
2019-01-23T00:55:00.884Z,28.8
2019-01-23T00:55:50.405Z,28.8
2019-01-23T00:56:40.699Z,28.8
2019-01-23T00:57:31.012Z,28.7
2019-01-23T00:58:21.650Z,28.6
2019-01-23T00:59:11.117Z,28.5
2019-01-23T01:00:01.457Z,28.4
2019-01-23T01:00:51.779Z,28.3
2019-01-23T01:01:41.344Z,28.1
2019-01-23T01:02:31.716Z,27.9
2019-01-23T01:03:22.248Z,27.8
2019-01-23T01:04:12.556Z,27.6
2019-01-23T01:05:00.699Z,27.4
2019-01-23T01:05:51.314Z,27.3
2019-01-23T01:06:41.139Z,27.3
2019-01-23T01:07:31.986Z,27.3
2019-01-23T01:08:22.060Z,27.2
2019-01-23T01:09:11.828Z,27.2
2019-01-23T01:10:01.216Z,27.3
2019-01-23T01:10:51.764Z,27.5
2019-01-23T01:11:42.591Z,27.6
2019-01-23T01:13:22.451Z,27.9
2019-01-23T01:14:12.503Z,28.1
2019-01-23T01:15:17.488Z,28.1
2019-01-23T01:15:52.597Z,28.3
2019-01-23T01:16:42.371Z,28.4
2019-01-23T01:17:31.905Z,28.4
2019-01-23T01:18:21.458Z,28.5
2019-01-23T01:19:12.833Z,28.6
2019-01-23T01:20:02.614Z,28.7
2019-01-23T01:20:52.960Z,28.7
2019-01-23T01:21:41.850Z,28.8
2019-01-23T01:22:31.987Z,28.8
2019-01-23T01:23:23.157Z,28.8
2019-01-23T01:24:12.090Z,28.8
2019-01-23T01:25:02.997Z,28.8
2019-01-23T01:25:53.600Z,28.7
2019-01-23T01:26:43.378Z,28.6
2019-01-23T01:27:32.557Z,28.4
2019-01-23T01:28:23.220Z,28.3
2019-01-23T01:29:12.990Z,28.2
2019-01-23T01:30:02.107Z,27.9
2019-01-23T01:31:43.792Z,27.7
2019-01-23T01:32:33.254Z,27.4
2019-01-23T01:33:21.700Z,27.3
2019-01-23T01:34:12.829Z,27.3
2019-01-23T01:35:03.404Z,27.3
2019-01-23T01:35:52.604Z,27.2
2019-01-23T01:36:43.594Z,27.2
2019-01-23T01:37:33.877Z,27.3
2019-01-23T01:38:23.047Z,27.4
2019-01-23T01:39:13.407Z,27.6
2019-01-23T01:40:03.612Z,27.8
2019-01-23T01:40:53.769Z,27.9
2019-01-23T01:41:43.949Z,28
2019-01-23T01:42:32.806Z,28.1
2019-01-23T01:43:23.672Z,28.2
2019-01-23T01:44:13.771Z,28.3
2019-01-23T01:45:03.857Z,28.4
2019-01-23T01:45:53.897Z,28.5
2019-01-23T01:46:43.071Z,28.6
2019-01-23T01:47:34.787Z,28.6
2019-01-23T01:48:23.763Z,28.7
2019-01-23T01:49:14.395Z,28.8
2019-01-23T01:50:04.506Z,28.8
2019-01-23T01:50:54.501Z,28.8
2019-01-23T01:51:45.156Z,28.8
2019-01-23T01:52:33.756Z,28.8
2019-01-23T01:53:24.415Z,28.8
2019-01-23T01:54:14.160Z,28.6
2019-01-23T01:55:04.476Z,28.6
2019-01-23T01:55:55.115Z,28.4
2019-01-23T01:56:45.148Z,28.3
2019-01-23T01:57:34.663Z,28.1
2019-01-23T01:58:25.168Z,27.9
2019-01-23T01:59:14.293Z,27.8
2019-01-23T02:00:05.203Z,27.6
2019-01-23T02:00:55.093Z,27.5
2019-01-23T02:01:45.970Z,27.3
2019-01-23T02:02:36.086Z,27.3
2019-01-23T02:03:26.325Z,27.3
2019-01-23T02:04:16.665Z,27.2
2019-01-23T02:05:06.764Z,27.3
2019-01-23T02:05:55.998Z,27.3
2019-01-23T02:06:45.507Z,27.5
2019-01-23T02:07:35.922Z,27.6
2019-01-23T02:10:06.642Z,27.7
2019-01-23T02:10:56.625Z,27.5
2019-01-23T02:11:47.021Z,27.3
2019-01-23T02:12:35.884Z,27.1
2019-01-23T02:13:26.542Z,27
2019-01-23T02:14:16.567Z,26.9
2019-01-23T02:15:05.543Z,27.2
2019-01-23T02:15:56.989Z,27.2
2019-01-23T02:16:46.216Z,27.1
2019-01-23T02:17:37.094Z,27.1
2019-01-23T02:18:26.575Z,26.9
2019-01-23T02:19:16.076Z,26.7
2019-01-23T02:20:06.740Z,26.8
2019-01-23T02:20:57.299Z,26.9
2019-01-23T02:21:47.937Z,27.2
2019-01-23T02:22:36.857Z,27.4
2019-01-23T02:23:27.201Z,27.5
2019-01-23T02:24:15.726Z,27.7
2019-01-23T02:25:06.478Z,27.8
2019-01-23T02:25:57.641Z,27.9
2019-01-23T02:26:46.639Z,28.1
2019-01-23T02:27:36.916Z,28.1
2019-01-23T02:28:27.066Z,28.3
2019-01-23T02:29:20.200Z,28.3
2019-01-23T02:30:07.340Z,28.4
2019-01-23T02:30:57.528Z,28.5
2019-01-23T02:31:47.602Z,28.6
2019-01-23T02:32:37.084Z,28.6
2019-01-23T02:33:28.243Z,28.7
2019-01-23T02:34:16.702Z,28.7
2019-01-23T02:35:06.875Z,28.7
2019-01-23T02:35:58.206Z,28.7
2019-01-23T02:36:48.243Z,28.6
2019-01-23T02:37:37.005Z,28.5
2019-01-23T02:38:28.603Z,28.4
2019-01-23T02:39:17.298Z,28.3
2019-01-23T02:40:08.486Z,28.2
2019-01-23T02:40:57.140Z,28
2019-01-23T02:42:38.076Z,27.6
2019-01-23T02:43:27.840Z,27.4
2019-01-23T02:44:17.180Z,27.3
2019-01-23T02:45:08.304Z,27.3
2019-01-23T02:45:57.808Z,27.3
2019-01-23T02:46:48.085Z,27.2
2019-01-23T02:47:37.867Z,27.2
2019-01-23T02:48:28.989Z,27.3
2019-01-23T02:49:19.147Z,27.4
2019-01-23T02:50:08.494Z,27.6
2019-01-23T02:50:58.151Z,27.8
2019-01-23T02:51:49.198Z,27.9
2019-01-23T02:52:39.674Z,28
2019-01-23T02:53:29.119Z,28.1
2019-01-23T02:54:19.122Z,28.2
2019-01-23T02:55:09.169Z,28.3
2019-01-23T02:55:58.717Z,28.4
2019-01-23T02:56:48.001Z,28.4
2019-01-23T02:57:38.854Z,28.5
2019-01-23T02:58:28.903Z,28.6
2019-01-23T02:59:26.564Z,28.6
2019-01-23T03:00:09.018Z,28.7
2019-01-23T03:01:00.137Z,28.8
2019-01-23T03:01:48.059Z,28.8
2019-01-23T03:02:39.504Z,28.8
2019-01-23T03:03:30.273Z,28.8
2019-01-23T03:04:19.516Z,28.6
2019-01-23T03:05:08.806Z,28.6
2019-01-23T03:08:43.234Z,27.9
2019-01-23T03:10:23.354Z,27.6
2019-01-23T03:11:13.265Z,27.4
2019-01-23T03:12:03.081Z,27.3
2019-01-23T03:12:53.686Z,27.3
2019-01-23T03:13:43.364Z,27.3
2019-01-23T03:14:33.440Z,27.3
2019-01-23T03:15:23.040Z,27.3
2019-01-23T03:16:13.615Z,27.3
2019-01-23T03:17:02.770Z,27.5
2019-01-23T03:17:52.718Z,27.6
2019-01-23T03:18:43.740Z,27.8
2019-01-23T03:19:33.540Z,27.9
2019-01-23T03:20:22.955Z,28
2019-01-23T03:21:14.195Z,28.1
2019-01-23T03:22:03.385Z,28.2
2019-01-23T03:22:54.307Z,28.3
2019-01-23T03:23:43.805Z,28.4
2019-01-23T03:24:33.852Z,28.5
2019-01-23T03:25:24.667Z,28.5
2019-01-23T03:26:13.900Z,28.6
2019-01-23T03:27:04.487Z,28.6
2019-01-23T03:27:55.209Z,28.7
2019-01-23T03:28:44.896Z,28.8
2019-01-23T03:29:35.897Z,28.8
2019-01-23T03:30:25.702Z,28.8
2019-01-23T03:31:15.173Z,28.8
2019-01-23T03:32:05.720Z,28.7
2019-01-23T03:32:55.713Z,28.6
2019-01-23T03:33:44.710Z,28.5
2019-01-23T03:34:35.332Z,28.4
2019-01-23T03:35:25.112Z,28.2
2019-01-23T03:36:15.141Z,28.1
2019-01-23T03:37:55.265Z,27.7
2019-01-23T03:38:44.759Z,27.4
2019-01-23T03:39:35.320Z,27.4
2019-01-23T03:40:25.253Z,27.3
2019-01-23T03:41:15.482Z,27.3
2019-01-23T03:42:06.040Z,27.3
2019-01-23T03:42:55.646Z,27.3
2019-01-23T03:43:45.742Z,27.3
2019-01-23T03:44:36.066Z,27.4
2019-01-23T03:45:25.887Z,27.6
2019-01-23T03:46:15.854Z,27.8
2019-01-23T03:47:05.609Z,27.9
2019-01-23T03:47:55.681Z,28
2019-01-23T03:48:45.521Z,28.1
2019-01-23T03:49:36.336Z,28.2
2019-01-23T03:50:26.711Z,28.3
2019-01-23T03:51:16.438Z,28.4
2019-01-23T03:52:06.278Z,28.4
2019-01-23T03:52:56.900Z,28.5
2019-01-23T03:53:46.625Z,28.6
2019-01-23T03:54:36.678Z,28.6
2019-01-23T03:55:26.788Z,28.6
2019-01-23T03:56:16.802Z,28.5
2019-01-23T03:57:06.310Z,28.3
2019-01-23T03:57:56.637Z,28.1
2019-01-23T03:58:46.679Z,27.8
2019-01-23T03:59:43.125Z,27.6
2019-01-23T04:00:28.693Z,27.4
2019-01-23T04:01:17.470Z,27.6
2019-01-23T04:02:07.498Z,27.6
2019-01-23T04:02:57.105Z,27.5
2019-01-23T04:03:46.175Z,27.4
2019-01-23T04:04:36.546Z,27.2
2019-01-23T04:05:26.980Z,27.1
2019-01-23T04:06:17.713Z,27.1
2019-01-23T04:07:06.709Z,27.3
2019-01-23T04:07:56.752Z,27.4
2019-01-23T04:08:47.332Z,27.6
2019-01-23T04:10:27.252Z,27.9
2019-01-23T04:11:17.487Z,28
2019-01-23T04:12:08.101Z,28.1
2019-01-23T04:12:57.416Z,28.3
2019-01-23T04:13:48.017Z,28.3
2019-01-23T04:14:37.455Z,28.4
2019-01-23T04:15:27.838Z,28.5
2019-01-23T04:16:17.542Z,28.6
2019-01-23T04:17:08.174Z,28.7
2019-01-23T04:17:57.979Z,28.7
2019-01-23T04:18:48.079Z,28.8
2019-01-23T04:19:38.372Z,28.8
2019-01-23T04:20:27.377Z,28.8
2019-01-23T04:21:17.884Z,28.7
2019-01-23T04:22:08.612Z,28.6
2019-01-23T04:22:58.048Z,28.5
2019-01-23T04:23:48.931Z,28.4
2019-01-23T04:24:38.986Z,28.3
2019-01-23T04:25:28.956Z,28.1
2019-01-23T04:26:17.547Z,27.9
2019-01-23T04:27:58.395Z,27.6
2019-01-23T04:28:47.648Z,27.4
2019-01-23T04:29:46.348Z,27.3
2019-01-23T04:30:28.436Z,27.3
2019-01-23T04:31:20.056Z,27.3
2019-01-23T04:32:08.930Z,27.3
2019-01-23T04:32:59.158Z,27.3
2019-01-23T04:33:49.688Z,27.4
2019-01-23T04:34:38.583Z,27.6
2019-01-23T04:35:28.693Z,27.7
2019-01-23T04:36:18.948Z,27.9
2019-01-23T04:37:09.961Z,28
2019-01-23T04:37:58.896Z,28.1
2019-01-23T04:38:49.493Z,28.2
2019-01-23T04:39:39.790Z,28.3
2019-01-23T04:40:29.603Z,28.4
2019-01-23T04:41:19.552Z,28.4
2019-01-23T04:42:09.980Z,28.5
2019-01-23T04:42:59.732Z,28.6
2019-01-23T04:43:50.312Z,28.6
2019-01-23T04:44:40.055Z,28.7
2019-01-23T04:45:29.583Z,28.7
2019-01-23T04:46:19.933Z,28.8
2019-01-23T04:47:09.966Z,28.8
2019-01-23T04:48:00.330Z,28.8
2019-01-23T04:48:50.082Z,28.8
2019-01-23T04:49:42.200Z,28.7
2019-01-23T04:50:30.198Z,28.6
2019-01-23T04:51:20.255Z,28.4
2019-01-23T04:52:10.650Z,28.4
2019-01-23T04:53:00.649Z,28.2
2019-01-23T04:53:50.427Z,28
2019-01-23T04:55:29.539Z,27.7
2019-01-23T04:56:20.594Z,27.4
2019-01-23T04:57:10.488Z,27.3
2019-01-23T04:58:00.775Z,27.3
2019-01-23T04:58:50.502Z,27.3
2019-01-23T04:59:48.175Z,27.3
2019-01-23T05:00:30.904Z,27.3
2019-01-23T05:01:21.459Z,27.3
2019-01-23T05:02:11.656Z,27.4
2019-01-23T05:03:02.030Z,27.6
2019-01-23T05:03:50.860Z,27.8
2019-01-23T05:04:40.864Z,27.9
2019-01-23T05:05:31.234Z,28
2019-01-23T05:06:21.606Z,28.1
2019-01-23T05:07:11.888Z,28.2
2019-01-23T05:08:01.159Z,28.3
2019-01-23T05:08:51.746Z,28.3
2019-01-23T05:09:41.483Z,28.4
2019-01-23T05:10:31.046Z,28.5
2019-01-23T05:11:21.126Z,28.6
2019-01-23T05:12:11.451Z,28.6
2019-01-23T05:13:01.808Z,28.7
2019-01-23T05:13:52.048Z,28.8
2019-01-23T05:14:42.276Z,28.8
2019-01-23T05:15:31.918Z,28.8
2019-01-23T05:16:22.510Z,28.8
2019-01-23T05:17:12.033Z,28.8
2019-01-23T05:18:02.159Z,28.8
2019-01-23T05:18:52.159Z,28.8
2019-01-23T05:19:42.465Z,28.6
2019-01-23T05:20:32.869Z,28.6
2019-01-23T05:21:24.201Z,28.4
2019-01-23T05:22:12.630Z,28.3
2019-01-23T05:23:02.700Z,28.2
2019-01-23T05:23:52.544Z,28
2019-01-23T05:25:33.221Z,27.6
2019-01-23T05:26:22.633Z,27.4
2019-01-23T05:27:13.294Z,27.4
2019-01-23T05:28:03.037Z,27.3
2019-01-23T05:28:53.388Z,27.3
2019-01-23T05:29:43.425Z,27.3
2019-01-23T05:30:32.970Z,27.2
2019-01-23T05:31:23.017Z,27.3
2019-01-23T05:32:14.010Z,27.4
2019-01-23T05:33:03.718Z,27.6
2019-01-23T05:33:53.425Z,27.7
2019-01-23T05:35:33.103Z,27.9
2019-01-23T05:36:23.884Z,28
2019-01-23T05:37:13.645Z,28.1
2019-01-23T05:38:02.978Z,28.2
2019-01-23T05:38:52.659Z,28.3
2019-01-23T05:39:44.899Z,28.3
2019-01-23T05:40:34.173Z,28.4
2019-01-23T05:41:23.427Z,28.4
2019-01-23T05:42:12.784Z,28.4
2019-01-23T05:43:03.099Z,28.3
2019-01-23T05:43:53.184Z,28.1
2019-01-23T05:44:42.738Z,27.9
2019-01-23T05:45:32.769Z,27.7
2019-01-23T05:46:23.047Z,27.4
2019-01-23T05:47:12.804Z,27.3
2019-01-23T05:48:04.164Z,27.2
2019-01-23T05:48:53.757Z,27.4
2019-01-23T05:49:43.579Z,27.4
2019-01-23T05:50:32.874Z,27.3
2019-01-23T05:51:23.649Z,27.3
2019-01-23T05:52:12.852Z,27.1
2019-01-23T05:53:03.808Z,26.9
2019-01-23T05:53:53.839Z,26.9
2019-01-23T05:54:42.841Z,27.1
2019-01-23T05:55:33.186Z,27.3
2019-01-23T05:56:23.241Z,27.4
2019-01-23T05:57:14.518Z,27.6
2019-01-23T05:58:04.431Z,27.8
2019-01-23T05:59:43.457Z,27.9
2019-01-23T06:00:34.248Z,28.1
2019-01-23T06:01:23.770Z,28.1
2019-01-23T06:02:14.651Z,28.3
2019-01-23T06:03:03.698Z,28.3
2019-01-23T06:03:53.456Z,28.4
2019-01-23T06:06:41.675Z,28.6
2019-01-23T06:07:30.849Z,28.6
2019-01-23T06:08:22.388Z,28.7
2019-01-23T06:09:11.780Z,28.8
2019-01-23T06:10:02.613Z,28.8
2019-01-23T06:10:52.855Z,28.7
2019-01-23T06:11:42.892Z,28.7
2019-01-23T06:12:33.035Z,28.6
2019-01-23T06:13:22.686Z,28.4
2019-01-23T06:14:13.217Z,28.4
2019-01-23T06:15:03.241Z,28.2
2019-01-23T06:15:53.302Z,28
2019-01-23T06:16:43.064Z,27.9
2019-01-23T06:17:33.094Z,27.8
2019-01-23T06:18:23.647Z,27.5
2019-01-23T06:19:14.020Z,27.4
2019-01-23T06:20:03.811Z,27.3
2019-01-23T06:20:55.575Z,27.3
2019-01-23T06:21:43.654Z,27.2
2019-01-23T06:22:33.982Z,27.2
2019-01-23T06:23:23.181Z,27.2
2019-01-23T06:24:14.100Z,27.4
2019-01-23T06:25:03.944Z,27.5
2019-01-23T06:25:53.079Z,27.6
2019-01-23T06:26:43.727Z,27.8
2019-01-23T06:27:33.794Z,27.9
2019-01-23T06:28:24.641Z,28
2019-01-23T06:29:13.329Z,28.1
2019-01-23T06:30:11.816Z,28.1
2019-01-23T06:30:54.000Z,28.3
2019-01-23T06:31:45.573Z,28.3
2019-01-23T06:32:33.852Z,28.4
2019-01-23T06:33:25.184Z,28.4
2019-01-23T06:34:15.001Z,28.5
2019-01-23T06:35:05.273Z,28.6
2019-01-23T06:35:55.311Z,28.6
2019-01-23T06:36:44.849Z,28.6
2019-01-23T06:37:34.959Z,28.7
2019-01-23T06:38:24.725Z,28.7
2019-01-23T06:39:14.508Z,28.8
2019-01-23T06:40:04.848Z,28.8
2019-01-23T06:40:54.343Z,28.7
2019-01-23T06:41:45.690Z,28.6
2019-01-23T06:42:35.479Z,28.6
2019-01-23T06:43:26.998Z,28.4
2019-01-23T06:44:15.103Z,28.3
2019-01-23T06:45:05.778Z,28.2
2019-01-23T06:45:54.810Z,28
2019-01-23T06:47:35.140Z,27.6
2019-01-23T06:48:24.636Z,27.4
2019-01-23T06:49:15.995Z,27.3
2019-01-23T06:50:08.028Z,27.3
2019-01-23T06:50:55.088Z,27.3
2019-01-23T06:51:46.757Z,27.3
2019-01-23T06:52:34.647Z,27.3
2019-01-23T06:53:25.765Z,27.3
2019-01-23T06:54:15.550Z,27.4
2019-01-23T06:55:05.915Z,27.6
2019-01-23T06:55:56.973Z,27.7
2019-01-23T06:57:36.297Z,27.9
2019-01-23T06:58:26.565Z,28
2019-01-23T06:59:16.903Z,28.1
2019-01-23T07:00:06.025Z,28.2
2019-01-23T07:00:56.522Z,28.3
2019-01-23T07:01:46.592Z,28.3
2019-01-23T07:02:37.107Z,28.4
2019-01-23T07:03:26.516Z,28.4
2019-01-23T07:04:16.656Z,28.5
2019-01-23T07:06:43.539Z,28.6
2019-01-23T07:07:32.836Z,28.7
2019-01-23T07:08:22.654Z,28.7
2019-01-23T07:09:13.476Z,28.7
2019-01-23T07:10:03.397Z,28.8
2019-01-23T07:10:52.818Z,28.6
2019-01-23T07:11:42.866Z,28.6
2019-01-23T07:12:33.694Z,28.5
2019-01-23T07:13:23.243Z,28.4
2019-01-23T07:14:13.541Z,28.3
2019-01-23T07:15:03.011Z,28.1
2019-01-23T07:15:53.943Z,27.9
2019-01-23T07:16:44.236Z,27.8
2019-01-23T07:17:34.013Z,27.6
2019-01-23T07:18:23.801Z,27.4
2019-01-23T07:19:13.668Z,27.3
2019-01-23T07:20:03.616Z,27.3
2019-01-23T07:20:53.751Z,27.3
2019-01-23T07:21:43.834Z,27.3
2019-01-23T07:22:33.093Z,27.2
2019-01-23T07:23:23.935Z,27.3
2019-01-23T07:24:14.018Z,27.4
2019-01-23T07:25:04.053Z,27.6
2019-01-23T07:25:53.681Z,27.7
2019-01-23T07:27:34.890Z,27.9
2019-01-23T07:28:24.212Z,27.9
2019-01-23T07:29:14.798Z,28
2019-01-23T07:30:05.513Z,27.9
2019-01-23T07:31:44.548Z,27.6
2019-01-23T07:32:34.360Z,27.4
2019-01-23T07:33:24.678Z,27.1
2019-01-23T07:34:14.723Z,26.9
2019-01-23T07:35:05.203Z,26.9
2019-01-23T07:35:55.119Z,27.1
2019-01-23T07:36:44.433Z,27.2
2019-01-23T07:37:35.170Z,27.1
2019-01-23T07:38:24.966Z,27.1
2019-01-23T07:39:15.007Z,26.9
2019-01-23T07:40:05.565Z,26.7
2019-01-23T07:40:55.340Z,26.7
2019-01-23T07:41:45.940Z,26.8
2019-01-23T07:42:35.465Z,27
2019-01-23T07:43:25.765Z,27.2
2019-01-23T07:44:14.779Z,27.4
2019-01-23T07:45:05.135Z,27.6
2019-01-23T07:45:54.712Z,27.7
2019-01-23T07:47:35.241Z,27.9
2019-01-23T07:48:27.425Z,28
2019-01-23T07:49:16.482Z,28.1
2019-01-23T07:50:06.239Z,28.2
2019-01-23T07:50:55.790Z,28.3
2019-01-23T07:51:46.651Z,28.4
2019-01-23T07:52:36.132Z,28.4
2019-01-23T07:53:25.894Z,28.5
2019-01-23T07:54:16.509Z,28.6
2019-01-23T07:55:06.963Z,28.6
2019-01-23T07:55:56.631Z,28.6
2019-01-23T07:56:47.002Z,28.6
2019-01-23T07:57:36.476Z,28.6
2019-01-23T07:58:26.850Z,28.6
2019-01-23T07:59:17.806Z,28.4
2019-01-23T08:00:06.741Z,28.3
2019-01-23T08:00:56.488Z,28.3
2019-01-23T08:01:46.756Z,28.1
2019-01-23T08:02:36.336Z,27.9
2019-01-23T08:03:26.158Z,27.8
2019-01-23T08:04:17.394Z,27.6
2019-01-23T08:05:06.288Z,27.4
2019-01-23T08:05:56.276Z,27.3
2019-01-23T08:06:46.858Z,27.2
2019-01-23T08:07:37.178Z,27.2
2019-01-23T08:08:27.018Z,27.1
2019-01-23T08:09:17.268Z,27.1
2019-01-23T08:10:07.491Z,27.3
2019-01-23T08:10:56.357Z,27.4
2019-01-23T08:11:46.377Z,27.6
2019-01-23T08:12:37.488Z,27.7
2019-01-23T08:13:29.005Z,27.9
2019-01-23T08:14:17.155Z,27.9
2019-01-23T08:15:08.193Z,28.1
2019-01-23T08:15:57.418Z,28.1
2019-01-23T08:16:48.182Z,28.3
2019-01-23T08:17:43.237Z,28.3
2019-01-23T08:18:27.880Z,28.4
2019-01-23T08:19:18.480Z,28.5
2019-01-23T08:20:09.833Z,28.6
2019-01-23T08:20:58.669Z,28.6
2019-01-23T08:21:48.659Z,28.6
2019-01-23T08:22:38.127Z,28.7
2019-01-23T08:23:28.489Z,28.7
2019-01-23T08:24:18.561Z,28.8
2019-01-23T08:25:10.467Z,28.7
2019-01-23T08:25:58.992Z,28.6
2019-01-23T08:26:48.189Z,28.6
2019-01-23T08:27:39.101Z,28.4
2019-01-23T08:28:28.829Z,28.3
2019-01-23T08:29:19.164Z,28.2
2019-01-23T08:30:08.660Z,27.9
2019-01-23T08:31:49.159Z,27.6
2019-01-23T08:32:39.417Z,27.4
2019-01-23T08:33:29.481Z,27.3
2019-01-23T08:34:18.751Z,27.3
2019-01-23T08:35:09.611Z,27.3
2019-01-23T08:35:58.823Z,27.2
2019-01-23T08:36:49.144Z,27.3
2019-01-23T08:37:39.763Z,27.4
2019-01-23T08:38:29.513Z,27.5
2019-01-23T08:39:19.318Z,27.6
2019-01-23T08:40:09.745Z,27.8
2019-01-23T08:40:59.112Z,27.9
2019-01-23T08:41:48.700Z,28
2019-01-23T08:42:39.573Z,28.1
2019-01-23T08:43:29.483Z,28.2
2019-01-23T08:44:19.924Z,28.3
2019-01-23T08:45:09.583Z,28.4
2019-01-23T08:45:59.804Z,28.4
2019-01-23T08:46:49.338Z,28.6
2019-01-23T08:47:39.288Z,28.6
2019-01-23T08:48:29.462Z,28.7
2019-01-23T08:49:19.735Z,28.7
2019-01-23T08:50:09.861Z,28.8
2019-01-23T08:51:00.644Z,28.8
2019-01-23T08:51:50.415Z,28.8
2019-01-23T08:52:40.301Z,28.6
2019-01-23T08:53:29.759Z,28.6
2019-01-23T08:54:20.871Z,28.4
2019-01-23T08:55:09.420Z,28.3
2019-01-23T08:56:04.032Z,28.2
2019-01-23T08:56:49.988Z,28
2019-01-23T08:58:30.132Z,27.7
2019-01-23T08:59:20.445Z,27.4
2019-01-23T09:00:10.622Z,27.3
2019-01-23T09:01:00.270Z,27.3
2019-01-23T09:01:51.003Z,27.3
2019-01-23T09:02:40.659Z,27.3
2019-01-23T09:03:30.544Z,27.2
2019-01-23T09:04:20.519Z,27.3
2019-01-23T09:05:11.084Z,27.4
2019-01-23T09:06:00.047Z,27.6
2019-01-23T09:06:50.729Z,27.8
2019-01-23T09:07:41.219Z,27.9
2019-01-23T09:08:37.986Z,28
2019-01-23T09:09:21.117Z,28.1
2019-01-23T09:10:11.404Z,28.2
2019-01-23T09:11:01.191Z,28.3
2019-01-23T09:11:51.629Z,28.4
2019-01-23T09:12:40.804Z,28.4
2019-01-23T09:13:31.646Z,28.6
2019-01-23T09:14:21.971Z,28.6
2019-01-23T09:15:11.238Z,28.7
2019-01-23T09:16:01.869Z,28.7
2019-01-23T09:16:51.509Z,28.8
2019-01-23T09:17:41.145Z,28.8
2019-01-23T09:18:31.521Z,28.7
2019-01-23T09:19:21.542Z,28.6
2019-01-23T09:20:11.819Z,28.6
2019-01-23T09:21:01.703Z,28.5
2019-01-23T09:21:51.801Z,28.4
2019-01-23T09:22:42.431Z,28.3
2019-01-23T09:23:32.364Z,28.2
2019-01-23T09:25:12.970Z,27.4
2019-01-23T09:26:02.748Z,27.4
2019-01-23T09:26:52.815Z,27.1
2019-01-23T09:27:41.922Z,27.2
2019-01-23T09:28:32.923Z,27.2
2019-01-23T09:29:22.718Z,27.2
2019-01-23T09:30:12.835Z,27.3
2019-01-23T09:31:04.223Z,27.4
2019-01-23T09:31:52.930Z,27.6
2019-01-23T09:32:42.007Z,27.8
2019-01-23T09:33:32.775Z,27.9
2019-01-23T09:34:22.840Z,28.1
2019-01-23T09:35:12.694Z,28.2
2019-01-23T09:36:02.680Z,28.3
2019-01-23T09:36:53.562Z,28.4
2019-01-23T09:37:43.052Z,28.5
2019-01-23T09:38:33.147Z,28.6
2019-01-23T09:39:23.174Z,28.6
2019-01-23T09:40:13.497Z,28.7
2019-01-23T09:41:03.527Z,28.8
2019-01-23T09:41:53.389Z,28.8
2019-01-23T09:42:43.907Z,28.8
2019-01-23T09:43:33.214Z,28.7
2019-01-23T09:44:23.807Z,28.6
2019-01-23T09:45:13.339Z,28.6
2019-01-23T09:46:03.922Z,28.4
2019-01-23T09:46:53.504Z,28.3
2019-01-23T09:47:43.454Z,28.2
2019-01-23T09:49:23.591Z,27.5
2019-01-23T09:50:14.204Z,27.4
2019-01-23T09:51:04.259Z,27.2
2019-01-23T09:51:54.354Z,27.2
2019-01-23T09:52:43.796Z,27.2
2019-01-23T09:53:34.608Z,27.3
2019-01-23T09:54:23.950Z,27.3
2019-01-23T09:55:13.766Z,27.4
2019-01-23T09:56:04.061Z,27.6
2019-01-23T09:56:53.648Z,27.8
2019-01-23T09:57:44.249Z,27.9
2019-01-23T09:58:35.263Z,28.1
2019-01-23T09:59:24.131Z,28.2
2019-01-23T10:00:14.656Z,28.3
2019-01-23T10:01:14.013Z,28.4
2019-01-23T10:01:55.001Z,28.6
2019-01-23T10:02:44.812Z,28.6
2019-01-23T10:03:34.815Z,28.7
2019-01-23T10:04:24.388Z,28.8
2019-01-23T10:05:14.466Z,28.8
2019-01-23T10:07:42.025Z,28.7
2019-01-23T10:08:31.993Z,28.6
2019-01-23T10:09:21.826Z,28.6
2019-01-23T10:10:12.452Z,28.4
2019-01-23T10:11:03.019Z,28.4
2019-01-23T10:11:52.521Z,28.1
2019-01-23T10:13:32.387Z,27.5
2019-01-23T10:14:22.762Z,27.4
2019-01-23T10:15:13.044Z,27.3
2019-01-23T10:16:03.129Z,27.2
2019-01-23T10:16:53.984Z,27.2
2019-01-23T10:17:44.627Z,27.3
2019-01-23T10:18:32.967Z,27.3
2019-01-23T10:19:23.067Z,27.4
2019-01-23T10:20:12.549Z,27.6
2019-01-23T10:21:01.627Z,27.8
2019-01-23T10:21:53.559Z,27.9
2019-01-23T10:22:43.530Z,28.1
2019-01-23T10:23:32.827Z,28.2
2019-01-23T10:24:23.409Z,28.3
2019-01-23T10:25:12.929Z,28.4
2019-01-23T10:26:02.406Z,28.5
2019-01-23T10:26:53.657Z,28.6
2019-01-23T10:27:43.918Z,28.6
2019-01-23T10:28:34.707Z,28.7
2019-01-23T10:29:23.558Z,28.8
2019-01-23T10:30:13.556Z,28.8
2019-01-23T10:31:10.439Z,28.8
2019-01-23T10:31:53.376Z,28.7
2019-01-23T10:32:43.938Z,28.6
2019-01-23T10:33:34.638Z,28.5
2019-01-23T10:34:24.138Z,28.4
2019-01-23T10:35:14.403Z,28.3
2019-01-23T10:36:05.027Z,28.3
2019-01-23T10:36:54.243Z,27.9
2019-01-23T10:37:44.026Z,27.6
2019-01-23T10:38:34.674Z,27.4
2019-01-23T10:39:24.413Z,27.3
2019-01-23T10:40:14.774Z,27.2
2019-01-23T10:41:04.260Z,27.3
2019-01-23T10:41:53.240Z,27.3
2019-01-23T10:42:44.902Z,27.3
2019-01-23T10:43:33.648Z,27.4
2019-01-23T10:44:25.043Z,27.6
2019-01-23T10:45:14.243Z,27.8
2019-01-23T10:46:05.503Z,27.9
2019-01-23T10:46:55.167Z,28.1
2019-01-23T10:47:44.705Z,28.2
2019-01-23T10:48:42.268Z,28.3
2019-01-23T10:49:24.870Z,28.4
2019-01-23T10:50:14.880Z,28.5
2019-01-23T10:51:05.518Z,28.6
2019-01-23T10:51:55.564Z,28.6
2019-01-23T10:52:45.015Z,28.8
2019-01-23T10:53:35.635Z,28.8
2019-01-23T10:54:26.407Z,28.8
2019-01-23T10:55:15.515Z,28.8
2019-01-23T10:56:05.900Z,28.7
2019-01-23T10:56:55.902Z,28.6
2019-01-23T10:57:46.503Z,28.6
2019-01-23T10:58:34.967Z,28.4
2019-01-23T10:59:26.727Z,28.3
2019-01-23T11:00:16.394Z,28.3
2019-01-23T11:01:13.858Z,27.9
2019-01-23T11:01:55.773Z,27.6
2019-01-23T11:02:44.974Z,27.4
2019-01-23T11:03:36.085Z,27.3
2019-01-23T11:04:26.798Z,27.2
2019-01-23T11:05:16.644Z,27.3
2019-01-23T11:06:06.239Z,27.3
2019-01-23T11:06:55.759Z,27.3
2019-01-23T11:07:46.909Z,27.4
2019-01-23T11:08:36.644Z,27.6
2019-01-23T11:09:29.252Z,27.7
2019-01-23T11:10:16.559Z,27.9
2019-01-23T11:11:07.476Z,28.1
2019-01-23T11:11:57.299Z,28.2
2019-01-23T11:12:46.213Z,28.3
2019-01-23T11:13:35.633Z,28.4
2019-01-23T11:14:26.591Z,28.5
2019-01-23T11:15:16.971Z,28.6
2019-01-23T11:16:08.484Z,28.6
2019-01-23T11:16:57.248Z,28.7
2019-01-23T11:17:47.648Z,28.8
2019-01-23T11:18:37.408Z,28.8
2019-01-23T11:19:28.153Z,28.8
2019-01-23T11:20:18.045Z,28.8
2019-01-23T11:21:07.843Z,28.7
2019-01-23T11:21:57.951Z,28.6
2019-01-23T11:22:48.283Z,28.5
2019-01-23T11:23:37.765Z,28.4
2019-01-23T11:24:27.843Z,28.2
2019-01-23T11:25:17.360Z,27.9
2019-01-23T11:26:06.974Z,27.6
2019-01-23T11:26:57.400Z,27.4
2019-01-23T11:27:46.996Z,27.3
2019-01-23T11:28:37.588Z,27.3
2019-01-23T11:29:28.098Z,27.3
2019-01-23T11:30:18.510Z,27.3
2019-01-23T11:31:08.353Z,27.3
2019-01-23T11:31:58.842Z,27.4
2019-01-23T11:32:47.540Z,27.6
2019-01-23T11:34:28.211Z,27.9
2019-01-23T11:35:18.615Z,28.1
2019-01-23T11:36:08.555Z,28.2
2019-01-23T11:36:58.089Z,28.3
2019-01-23T11:37:49.032Z,28.4